createdAt,value
2019-03-29T00:01:40.961Z,10.60
2019-03-29T00:04:09.397Z,10.60
2019-03-29T00:06:37.829Z,10.60
2019-03-29T00:09:07.604Z,10.60
2019-03-29T00:11:36.533Z,10.60
2019-03-29T00:14:04.941Z,10.60
2019-03-29T00:16:33.585Z,10.60
2019-03-29T00:19:02.339Z,10.70
2019-03-29T00:21:30.805Z,10.70
2019-03-29T00:24:06.596Z,10.70
2019-03-29T00:26:29.411Z,10.70
2019-03-29T00:28:57.840Z,10.60
2019-03-29T00:31:26.282Z,10.60
2019-03-29T00:33:54.718Z,10.60
2019-03-29T00:36:23.149Z,10.70
2019-03-29T00:38:51.605Z,10.60
2019-03-29T00:41:20.049Z,10.60
2019-03-29T00:43:48.500Z,10.50
2019-03-29T00:46:16.933Z,10.50
2019-03-29T00:48:45.365Z,10.50
2019-03-29T00:51:13.824Z,10.50
2019-03-29T00:53:42.261Z,10.50
2019-03-29T00:56:10.722Z,10.50
2019-03-29T00:58:39.136Z,10.60
2019-03-29T01:01:07.604Z,10.60
2019-03-29T01:03:36.962Z,10.50
2019-03-29T01:06:05.604Z,10.50
2019-03-29T01:08:34.043Z,10.50
2019-03-29T01:11:02.545Z,10.60
2019-03-29T01:13:30.986Z,10.80
2019-03-29T01:15:59.412Z,10.80
2019-03-29T01:18:27.851Z,10.80
2019-03-29T01:20:56.272Z,10.70
2019-03-29T01:23:24.732Z,10.70
2019-03-29T01:25:53.208Z,10.70
2019-03-29T01:28:21.700Z,10.70
2019-03-29T01:30:50.338Z,10.60
2019-03-29T01:33:18.773Z,10.60
2019-03-29T01:35:47.218Z,10.60
2019-03-29T01:38:21.810Z,10.60
2019-03-29T01:40:45.803Z,10.70
2019-03-29T01:43:14.237Z,10.60
2019-03-29T01:45:42.994Z,10.70
2019-03-29T01:48:11.429Z,10.70
2019-03-29T01:50:39.872Z,10.70
2019-03-29T01:53:08.312Z,10.70
2019-03-29T01:55:36.741Z,10.70
2019-03-29T01:58:05.180Z,10.70
2019-03-29T02:00:36.101Z,10.70
2019-03-29T02:03:04.805Z,10.80
2019-03-29T02:05:33.229Z,10.80
2019-03-29T02:08:02.000Z,10.80
2019-03-29T02:10:30.494Z,10.80
2019-03-29T02:12:59.214Z,10.80
2019-03-29T02:15:28.240Z,10.80
2019-03-29T02:17:57.042Z,10.90
2019-03-29T02:20:25.472Z,10.90
2019-03-29T02:22:53.907Z,10.90
2019-03-29T02:25:22.345Z,10.80
2019-03-29T02:27:50.760Z,10.80
2019-03-29T02:30:19.269Z,10.80
2019-03-29T02:32:47.743Z,10.70
2019-03-29T02:35:16.249Z,10.70
2019-03-29T02:37:44.745Z,10.70
2019-03-29T02:40:13.338Z,10.70
2019-03-29T02:42:42.913Z,10.70
2019-03-29T02:45:12.383Z,10.70
2019-03-29T02:47:40.792Z,10.70
2019-03-29T02:50:09.481Z,10.70
2019-03-29T02:52:37.991Z,10.70
2019-03-29T02:55:07.533Z,10.60
2019-03-29T02:57:36.027Z,10.60
2019-03-29T03:00:07.223Z,10.60
2019-03-29T03:02:35.760Z,10.60
2019-03-29T03:05:05.313Z,10.60
2019-03-29T03:07:34.010Z,10.50
2019-03-29T03:10:02.461Z,10.50
2019-03-29T03:12:30.879Z,10.50
2019-03-29T03:14:59.312Z,10.50
2019-03-29T03:17:27.756Z,10.50
2019-03-29T03:19:56.193Z,10.50
2019-03-29T03:22:24.656Z,10.50
2019-03-29T03:24:53.162Z,10.50
2019-03-29T03:27:21.599Z,10.50
2019-03-29T03:29:50.120Z,10.50
2019-03-29T03:32:18.559Z,10.50
2019-03-29T03:34:47.289Z,10.50
2019-03-29T03:37:15.720Z,10.50
2019-03-29T03:39:44.162Z,10.50
2019-03-29T03:42:12.589Z,10.50
2019-03-29T03:44:41.031Z,10.60
2019-03-29T03:47:09.457Z,10.60
2019-03-29T03:49:37.913Z,10.60
2019-03-29T03:52:06.606Z,10.60
2019-03-29T03:54:35.074Z,10.70
2019-03-29T03:57:05.397Z,10.70
2019-03-29T03:59:34.401Z,10.70
2019-03-29T04:02:02.827Z,10.70
2019-03-29T04:04:31.346Z,10.70
2019-03-29T04:06:59.782Z,10.70
2019-03-29T04:09:28.242Z,10.70
2019-03-29T04:11:56.691Z,10.70
2019-03-29T04:14:25.174Z,10.70
2019-03-29T04:16:53.615Z,10.70
2019-03-29T04:19:22.032Z,10.70
2019-03-29T04:21:50.494Z,10.70
2019-03-29T04:24:18.915Z,10.70
2019-03-29T04:26:47.354Z,10.70
2019-03-29T04:29:15.773Z,10.70
2019-03-29T04:31:44.230Z,10.80
2019-03-29T04:34:12.669Z,10.80
2019-03-29T04:36:41.117Z,10.80
2019-03-29T04:39:09.551Z,10.80
2019-03-29T04:41:38.061Z,10.80
2019-03-29T04:44:06.480Z,10.80
2019-03-29T04:46:34.930Z,10.90
2019-03-29T04:49:03.361Z,10.90
2019-03-29T04:51:31.853Z,10.90
2019-03-29T04:54:00.280Z,10.90
2019-03-29T04:56:28.725Z,11.00
2019-03-29T04:58:57.152Z,11.10
2019-03-29T05:01:25.630Z,11.10
2019-03-29T05:03:54.083Z,11.20
2019-03-29T05:06:22.526Z,11.20
2019-03-29T05:08:50.957Z,11.40
2019-03-29T05:11:19.383Z,11.50
2019-03-29T05:13:47.813Z,11.60
2019-03-29T05:16:16.277Z,11.70
2019-03-29T05:18:44.723Z,11.50
2019-03-29T05:21:13.153Z,11.40
2019-03-29T05:23:41.603Z,11.50
2019-03-29T05:26:10.100Z,11.60
2019-03-29T05:28:38.546Z,11.70
2019-03-29T05:31:06.973Z,11.80
2019-03-29T05:33:35.422Z,11.90
2019-03-29T05:36:04.031Z,11.90
2019-03-29T05:38:32.504Z,11.80
2019-03-29T05:41:01.630Z,11.70
2019-03-29T05:43:30.068Z,11.70
2019-03-29T05:45:58.508Z,11.80
2019-03-29T05:48:26.961Z,11.80
2019-03-29T05:50:55.401Z,11.70
2019-03-29T05:53:23.894Z,11.70
2019-03-29T05:55:52.310Z,11.70
2019-03-29T05:58:20.758Z,11.70
2019-03-29T06:00:49.486Z,11.70
2019-03-29T06:03:17.945Z,11.70
2019-03-29T06:05:46.390Z,11.80
2019-03-29T06:08:15.020Z,11.70
2019-03-29T06:10:49.384Z,11.70
2019-03-29T06:13:14.020Z,11.60
2019-03-29T06:15:43.030Z,11.50
2019-03-29T06:18:11.505Z,11.40
2019-03-29T06:20:39.944Z,11.50
2019-03-29T06:23:08.378Z,11.40
2019-03-29T06:25:36.803Z,11.70
2019-03-29T06:28:06.212Z,11.50
2019-03-29T06:30:34.806Z,11.50
2019-03-29T06:33:03.235Z,11.50
2019-03-29T06:35:33.967Z,11.40
2019-03-29T06:38:04.164Z,11.40
2019-03-29T06:40:32.602Z,11.40
2019-03-29T06:43:01.032Z,11.30
2019-03-29T06:45:29.480Z,11.30
2019-03-29T06:47:57.980Z,11.30
2019-03-29T06:50:26.440Z,11.30
2019-03-29T06:52:54.866Z,11.30
2019-03-29T06:55:23.619Z,11.30
2019-03-29T06:57:59.178Z,11.30
2019-03-29T07:00:27.628Z,11.30
2019-03-29T07:02:56.062Z,11.20
2019-03-29T07:05:24.497Z,11.30
2019-03-29T07:07:52.961Z,11.30
2019-03-29T07:10:21.454Z,11.40
2019-03-29T07:12:49.889Z,11.40
2019-03-29T07:15:18.596Z,11.50
2019-03-29T07:17:47.051Z,11.50
2019-03-29T07:20:15.506Z,11.50
2019-03-29T07:22:44.103Z,11.60
2019-03-29T07:25:12.700Z,11.60
2019-03-29T07:27:45.800Z,11.70
2019-03-29T07:30:11.849Z,11.80
2019-03-29T07:32:40.269Z,11.80
2019-03-29T07:35:09.510Z,11.70
2019-03-29T07:37:38.229Z,11.80
2019-03-29T07:40:07.222Z,11.70
2019-03-29T07:42:35.716Z,11.70
2019-03-29T07:45:05.808Z,11.60
2019-03-29T07:47:34.239Z,11.70
2019-03-29T07:50:02.685Z,11.70
2019-03-29T07:52:31.118Z,11.90
2019-03-29T07:54:59.573Z,12.00
2019-03-29T07:57:28.072Z,12.00
2019-03-29T07:59:56.669Z,12.00
2019-03-29T08:02:25.109Z,12.00
2019-03-29T08:04:53.551Z,11.90
2019-03-29T08:07:27.489Z,11.90
2019-03-29T08:09:52.163Z,11.90
2019-03-29T08:12:22.076Z,12.00
2019-03-29T08:14:50.709Z,12.00
2019-03-29T08:17:19.572Z,12.10
2019-03-29T08:20:05.336Z,12.20
2019-03-29T08:22:18.157Z,12.40
2019-03-29T08:24:46.609Z,12.40
2019-03-29T08:27:15.117Z,12.50
2019-03-29T08:29:43.571Z,12.50
2019-03-29T08:32:12.005Z,12.50
2019-03-29T08:34:40.453Z,12.60
2019-03-29T08:37:08.889Z,12.70
2019-03-29T08:39:37.614Z,12.70
2019-03-29T08:42:06.102Z,12.70
2019-03-29T08:44:34.609Z,12.70
2019-03-29T08:47:03.055Z,12.80
2019-03-29T08:49:31.501Z,12.70
2019-03-29T08:51:59.946Z,12.60
2019-03-29T08:54:28.370Z,12.60
2019-03-29T08:56:57.082Z,12.70
2019-03-29T08:59:25.507Z,12.80
2019-03-29T09:01:53.946Z,12.70
2019-03-29T09:04:23.433Z,12.70
2019-03-29T09:06:53.726Z,12.70
2019-03-29T09:09:22.045Z,12.60
2019-03-29T09:11:50.547Z,12.60
2019-03-29T09:14:19.092Z,12.70
2019-03-29T09:16:47.560Z,12.80
2019-03-29T09:19:15.990Z,13.00
2019-03-29T09:21:44.464Z,13.00
2019-03-29T09:24:21.844Z,12.90
2019-03-29T09:26:43.095Z,12.80
2019-03-29T09:29:11.593Z,12.90
2019-03-29T09:31:40.033Z,13.00
2019-03-29T09:34:08.473Z,13.20
2019-03-29T09:36:36.936Z,13.10
2019-03-29T09:39:06.944Z,13.10
2019-03-29T09:41:35.405Z,13.10
2019-03-29T09:44:03.857Z,13.20
2019-03-29T09:46:32.369Z,13.30
2019-03-29T09:49:00.829Z,13.50
2019-03-29T09:51:29.337Z,13.60
2019-03-29T09:53:58.062Z,13.80
2019-03-29T09:56:37.907Z,14.00
2019-03-29T09:58:56.751Z,14.10
2019-03-29T10:01:26.139Z,14.10
2019-03-29T10:03:54.630Z,14.10
2019-03-29T10:06:23.107Z,14.10
2019-03-29T10:08:53.341Z,14.30
2019-03-29T10:11:22.198Z,14.40
2019-03-29T10:13:52.643Z,14.20
2019-03-29T10:16:21.104Z,14.10
2019-03-29T10:18:49.609Z,13.90
2019-03-29T10:21:18.076Z,13.90
2019-03-29T10:23:46.558Z,14.00
2019-03-29T10:26:14.992Z,14.20
2019-03-29T10:28:43.456Z,14.30
2019-03-29T10:31:11.889Z,14.00
2019-03-29T10:33:40.416Z,13.70
2019-03-29T10:36:08.854Z,13.70
2019-03-29T10:38:37.308Z,13.70
2019-03-29T10:41:05.744Z,13.80
2019-03-29T10:43:34.550Z,13.90
2019-03-29T10:46:03.000Z,13.90
2019-03-29T10:48:31.818Z,14.00
2019-03-29T10:51:00.261Z,14.10
2019-03-29T10:53:29.052Z,14.20
2019-03-29T10:55:57.737Z,14.00
2019-03-29T10:58:26.249Z,14.00
2019-03-29T11:00:54.686Z,14.00
2019-03-29T11:03:23.201Z,14.00
2019-03-29T11:05:51.642Z,14.00
2019-03-29T11:08:21.683Z,14.00
2019-03-29T11:10:50.516Z,14.00
2019-03-29T11:13:18.990Z,14.00
2019-03-29T11:15:47.480Z,14.20
2019-03-29T11:18:16.295Z,14.20
2019-03-29T11:20:44.737Z,14.20
2019-03-29T11:23:13.257Z,14.20
2019-03-29T11:25:41.715Z,14.50
2019-03-29T11:28:10.178Z,14.60
2019-03-29T11:30:42.577Z,14.40
2019-03-29T11:33:08.927Z,14.50
2019-03-29T11:35:37.462Z,14.50
2019-03-29T11:38:05.886Z,14.50
2019-03-29T11:40:34.339Z,14.50
2019-03-29T11:43:02.791Z,14.40
2019-03-29T11:45:31.625Z,14.50
2019-03-29T11:48:08.298Z,14.50
2019-03-29T11:50:30.285Z,14.60
2019-03-29T11:52:59.773Z,14.50
2019-03-29T11:55:28.270Z,14.30
2019-03-29T11:57:56.705Z,14.30
2019-03-29T12:00:35.743Z,14.40
2019-03-29T12:03:08.480Z,14.50
2019-03-29T12:05:36.440Z,14.50
2019-03-29T12:08:05.515Z,14.60
2019-03-29T12:10:34.148Z,14.80
2019-03-29T12:13:02.648Z,15.10
2019-03-29T12:15:31.204Z,15.20
2019-03-29T12:17:59.706Z,15.10
2019-03-29T12:20:28.227Z,15.00
2019-03-29T12:22:56.693Z,14.80
2019-03-29T12:25:26.297Z,15.00
2019-03-29T12:27:54.737Z,15.10
2019-03-29T12:30:31.697Z,15.30
2019-03-29T12:32:53.348Z,15.60
2019-03-29T12:35:21.849Z,15.80
2019-03-29T12:37:50.283Z,15.70
2019-03-29T12:40:18.741Z,15.40
2019-03-29T12:42:47.225Z,15.30
2019-03-29T12:45:15.734Z,15.20
2019-03-29T12:47:44.454Z,15.10
2019-03-29T12:50:13.254Z,15.00
2019-03-29T12:52:41.705Z,15.20
2019-03-29T12:55:10.311Z,15.40
2019-03-29T12:57:39.447Z,15.60
2019-03-29T13:00:08.685Z,15.70
2019-03-29T13:02:37.110Z,15.70
2019-03-29T13:05:06.885Z,15.50
2019-03-29T13:07:35.330Z,15.40
2019-03-29T13:10:06.809Z,15.30
2019-03-29T13:12:35.248Z,15.30
2019-03-29T13:15:04.883Z,15.40
2019-03-29T13:17:33.327Z,15.60
2019-03-29T13:20:01.824Z,15.90
2019-03-29T13:22:30.537Z,15.90
2019-03-29T13:24:58.965Z,15.60
2019-03-29T13:27:27.405Z,15.40
2019-03-29T13:29:57.129Z,15.60
2019-03-29T13:32:26.591Z,15.70
2019-03-29T13:34:55.101Z,15.70
2019-03-29T13:37:23.547Z,15.80
2019-03-29T13:39:52.039Z,15.80
2019-03-29T13:42:20.504Z,15.60
2019-03-29T13:44:48.947Z,15.70
2019-03-29T13:47:18.141Z,15.80
2019-03-29T13:49:46.764Z,16.10
2019-03-29T13:52:16.018Z,15.90
2019-03-29T13:54:44.795Z,15.80
2019-03-29T13:57:13.244Z,15.90
2019-03-29T13:59:41.693Z,16.20
2019-03-29T14:02:10.177Z,16.30
2019-03-29T14:04:38.795Z,16.40
2019-03-29T14:07:07.236Z,16.50
2019-03-29T14:09:36.088Z,16.60
2019-03-29T14:12:04.532Z,16.40
2019-03-29T14:14:38.434Z,16.30
2019-03-29T14:17:03.164Z,16.20
2019-03-29T14:19:51.004Z,16.10
2019-03-29T14:22:19.508Z,16.00
2019-03-29T14:24:47.936Z,16.00
2019-03-29T14:27:16.374Z,15.90
2019-03-29T14:29:44.818Z,16.10
2019-03-29T14:32:13.338Z,16.10
2019-03-29T14:34:41.769Z,16.00
2019-03-29T14:37:10.205Z,15.90
2019-03-29T14:39:38.650Z,15.90
2019-03-29T14:42:07.177Z,16.00
2019-03-29T14:44:35.610Z,16.10
2019-03-29T14:47:04.049Z,16.20
2019-03-29T14:49:32.488Z,16.40
2019-03-29T14:52:00.925Z,16.50
2019-03-29T14:54:29.384Z,16.40
2019-03-29T14:56:57.820Z,16.20
2019-03-29T14:59:26.262Z,16.10
2019-03-29T15:01:54.694Z,16.20
2019-03-29T15:04:23.133Z,16.30
2019-03-29T15:06:51.569Z,16.40
2019-03-29T15:09:20.973Z,16.30
2019-03-29T15:11:49.428Z,16.30
2019-03-29T15:14:17.934Z,16.20
2019-03-29T15:16:46.371Z,16.30
2019-03-29T15:19:14.809Z,16.50
2019-03-29T15:21:43.254Z,16.40
2019-03-29T15:24:11.694Z,16.30
2019-03-29T15:26:40.134Z,16.40
2019-03-29T15:29:08.573Z,16.60
2019-03-29T15:31:37.367Z,16.70
2019-03-29T15:34:05.834Z,16.60
2019-03-29T15:36:34.256Z,16.50
2019-03-29T15:39:02.705Z,16.50
2019-03-29T15:41:31.318Z,16.60
2019-03-29T15:43:59.761Z,16.70
2019-03-29T15:46:28.192Z,16.90
2019-03-29T15:48:56.654Z,17.30
2019-03-29T15:51:25.081Z,17.80
2019-03-29T15:53:53.538Z,18.40
2019-03-29T15:56:21.969Z,18.90
2019-03-29T15:58:50.429Z,19.80
2019-03-29T16:01:19.728Z,20.60
2019-03-29T16:03:48.160Z,20.80
2019-03-29T16:06:16.609Z,20.80
2019-03-29T16:08:45.394Z,20.80
2019-03-29T16:11:17.178Z,20.90
2019-03-29T16:13:44.007Z,21.00
2019-03-29T16:16:12.510Z,20.90
2019-03-29T16:18:40.988Z,20.90
2019-03-29T16:21:09.422Z,20.90
2019-03-29T16:23:37.853Z,20.90
2019-03-29T16:26:06.285Z,20.90
2019-03-29T16:28:34.724Z,20.80
2019-03-29T16:31:03.158Z,20.50
2019-03-29T16:33:31.594Z,20.40
2019-03-29T16:36:00.040Z,20.40
2019-03-29T16:38:28.481Z,20.30
2019-03-29T16:40:57.296Z,20.30
2019-03-29T16:43:25.737Z,20.50
2019-03-29T16:45:54.182Z,20.50
2019-03-29T16:48:22.930Z,20.10
2019-03-29T16:50:51.437Z,20.00
2019-03-29T16:53:19.881Z,19.90
2019-03-29T16:55:48.670Z,19.70
2019-03-29T16:58:17.115Z,19.30
2019-03-29T17:00:45.553Z,19.30
2019-03-29T17:03:14.321Z,19.20
2019-03-29T17:05:42.749Z,19.00
2019-03-29T17:08:11.186Z,19.00
2019-03-29T17:10:39.628Z,19.10
2019-03-29T17:13:08.066Z,19.10
2019-03-29T17:15:36.821Z,18.90
2019-03-29T17:18:05.271Z,18.90
2019-03-29T17:20:33.701Z,18.90
2019-03-29T17:23:02.138Z,18.70
2019-03-29T17:25:30.578Z,18.40
2019-03-29T17:27:59.001Z,18.00
2019-03-29T17:30:40.181Z,17.50
2019-03-29T17:33:08.624Z,17.20
2019-03-29T17:35:37.057Z,16.90
2019-03-29T17:38:05.497Z,16.80
2019-03-29T17:40:34.016Z,16.60
2019-03-29T17:43:02.444Z,16.40
2019-03-29T17:45:30.886Z,16.10
2019-03-29T17:47:59.329Z,16.10
2019-03-29T17:50:27.785Z,15.90
2019-03-29T17:52:56.219Z,15.90
2019-03-29T17:55:24.655Z,15.80
2019-03-29T17:57:53.088Z,15.60
2019-03-29T18:00:23.403Z,15.60
2019-03-29T18:02:51.840Z,15.50
2019-03-29T18:05:20.265Z,15.40
2019-03-29T18:07:48.711Z,15.40
2019-03-29T18:10:17.144Z,15.30
2019-03-29T18:12:45.765Z,15.20
2019-03-29T18:15:15.204Z,15.20
2019-03-29T18:17:43.646Z,15.10
2019-03-29T18:20:12.347Z,15.20
2019-03-29T18:22:41.268Z,15.20
2019-03-29T18:25:09.837Z,15.20
2019-03-29T18:27:38.300Z,15.20
2019-03-29T18:30:08.076Z,15.20
2019-03-29T18:32:36.657Z,15.20
2019-03-29T18:35:09.961Z,15.10
2019-03-29T18:37:38.850Z,15.00
2019-03-29T18:40:09.096Z,15.00
2019-03-29T18:42:37.551Z,15.00
2019-03-29T18:45:08.038Z,14.90
2019-03-29T18:47:36.807Z,14.80
2019-03-29T18:50:06.574Z,14.70
2019-03-29T18:52:35.013Z,14.70
2019-03-29T18:55:04.706Z,14.70
2019-03-29T18:57:33.206Z,14.70
2019-03-29T19:00:01.644Z,14.70
2019-03-29T19:02:30.170Z,14.70
2019-03-29T19:04:58.614Z,14.70
2019-03-29T19:07:30.285Z,14.60
2019-03-29T19:09:59.270Z,14.50
2019-03-29T19:12:27.720Z,14.20
2019-03-29T19:14:56.146Z,14.00
2019-03-29T19:17:24.583Z,13.90
2019-03-29T19:19:53.038Z,13.70
2019-03-29T19:22:21.916Z,13.60
2019-03-29T19:24:50.399Z,13.60
2019-03-29T19:27:18.829Z,13.50
2019-03-29T19:29:47.632Z,13.40
2019-03-29T19:32:16.069Z,13.30
2019-03-29T19:34:44.500Z,13.20
2019-03-29T19:37:12.928Z,13.10
2019-03-29T19:39:41.372Z,13.10
2019-03-29T19:42:09.821Z,13.00
2019-03-29T19:44:38.261Z,12.90
2019-03-29T19:47:13.327Z,12.80
2019-03-29T19:49:37.126Z,12.80
2019-03-29T19:52:05.556Z,12.70
2019-03-29T19:54:34.011Z,12.70
2019-03-29T19:57:02.525Z,12.60
2019-03-29T19:59:32.553Z,12.50
2019-03-29T20:02:01.060Z,12.50
2019-03-29T20:04:29.496Z,12.50
2019-03-29T20:06:57.921Z,12.40
2019-03-29T20:09:26.365Z,12.40
2019-03-29T20:11:54.797Z,12.30
2019-03-29T20:14:23.234Z,12.30
2019-03-29T20:16:55.068Z,12.30
2019-03-29T20:19:22.097Z,12.40
2019-03-29T20:21:50.537Z,12.40
2019-03-29T20:24:18.981Z,12.40
2019-03-29T20:26:47.416Z,12.40
2019-03-29T20:29:15.935Z,12.30
2019-03-29T20:31:44.445Z,12.30
2019-03-29T20:34:12.885Z,12.20
2019-03-29T20:36:41.325Z,12.10
2019-03-29T20:39:09.758Z,12.10
2019-03-29T20:41:38.193Z,12.00
2019-03-29T20:44:06.625Z,11.90
2019-03-29T20:46:35.059Z,11.80
2019-03-29T20:49:03.494Z,11.80
2019-03-29T20:51:31.929Z,11.70
2019-03-29T20:54:00.373Z,11.60
2019-03-29T20:56:29.014Z,11.50
2019-03-29T20:58:57.556Z,11.40
2019-03-29T21:01:25.994Z,11.40
2019-03-29T21:03:54.426Z,11.40
2019-03-29T21:06:22.889Z,11.40
2019-03-29T21:08:51.347Z,11.30
2019-03-29T21:11:20.141Z,11.20
2019-03-29T21:13:48.688Z,11.20
2019-03-29T21:16:17.318Z,11.10
2019-03-29T21:18:45.759Z,11.10
2019-03-29T21:21:14.205Z,11.10
2019-03-29T21:23:42.625Z,11.10
2019-03-29T21:26:11.113Z,11.10
2019-03-29T21:28:39.554Z,11.00
2019-03-29T21:31:08.069Z,10.90
2019-03-29T21:33:36.486Z,10.80
2019-03-29T21:36:04.967Z,10.70
2019-03-29T21:38:33.452Z,10.70
2019-03-29T21:41:01.897Z,10.70
2019-03-29T21:43:30.349Z,10.60
2019-03-29T21:45:58.793Z,10.60
2019-03-29T21:48:29.041Z,10.60
2019-03-29T21:50:57.451Z,10.60
2019-03-29T21:53:26.265Z,10.60
2019-03-29T21:55:54.684Z,10.60
2019-03-29T21:58:23.125Z,10.70
2019-03-29T22:00:51.590Z,10.70
2019-03-29T22:03:20.396Z,10.70
2019-03-29T22:05:48.840Z,10.70
2019-03-29T22:08:18.056Z,10.70
2019-03-29T22:10:46.787Z,10.70
2019-03-29T22:13:15.240Z,10.60
2019-03-29T22:15:43.701Z,10.60
2019-03-29T22:18:12.143Z,10.60
2019-03-29T22:20:40.611Z,10.60
2019-03-29T22:23:09.101Z,10.60
2019-03-29T22:25:37.523Z,10.60
2019-03-29T22:28:05.994Z,10.60
2019-03-29T22:30:34.438Z,10.50
2019-03-29T22:33:04.061Z,10.40
2019-03-29T22:35:32.725Z,10.50
2019-03-29T22:38:01.182Z,10.50
2019-03-29T22:40:29.608Z,10.40
2019-03-29T22:42:58.057Z,10.40
2019-03-29T22:45:26.504Z,10.40
2019-03-29T22:47:54.951Z,10.40
2019-03-29T22:50:23.380Z,10.30
2019-03-29T22:52:54.447Z,10.20
2019-03-29T22:55:22.350Z,10.10
2019-03-29T22:57:50.826Z,10.10
2019-03-29T23:00:22.343Z,10.10
2019-03-29T23:02:50.789Z,10.10
2019-03-29T23:05:19.222Z,10.20
2019-03-29T23:07:47.733Z,10.20
2019-03-29T23:10:16.246Z,10.30
2019-03-29T23:12:44.692Z,10.30
2019-03-29T23:15:13.345Z,10.30
2019-03-29T23:17:41.779Z,10.20
2019-03-29T23:20:10.573Z,10.20
2019-03-29T23:22:39.001Z,10.20
2019-03-29T23:25:07.508Z,10.30
2019-03-29T23:27:36.197Z,10.20
2019-03-29T23:30:06.574Z,10.20
2019-03-29T23:32:35.014Z,10.20
2019-03-29T23:35:04.330Z,10.20
2019-03-29T23:37:32.769Z,10.20
2019-03-29T23:40:01.228Z,10.20
2019-03-29T23:42:29.749Z,10.20
2019-03-29T23:44:58.180Z,10.10
2019-03-29T23:47:26.654Z,10.00
2019-03-29T23:49:55.130Z,10.10
2019-03-29T23:52:23.610Z,10.10
2019-03-29T23:54:52.044Z,10.10
2019-03-29T23:57:20.483Z,10.10
2019-03-29T23:59:48.997Z,10.00
